createdAt,value
2019-05-19T00:02:48.747Z,100123.88
2019-05-19T00:06:52.465Z,100121.38
2019-05-19T00:10:55.884Z,100116.89
2019-05-19T00:14:59.359Z,100120.11
2019-05-19T00:19:02.778Z,100126.06
2019-05-19T00:23:06.496Z,100117.92
2019-05-19T00:27:09.923Z,100121.32
2019-05-19T00:31:13.346Z,100126.92
2019-05-19T00:35:16.875Z,100129.20
2019-05-19T00:39:20.263Z,100123.20
2019-05-19T00:43:24.193Z,100120.20
2019-05-19T00:47:28.175Z,100116.64
2019-05-19T00:51:32.421Z,100123.09
2019-05-19T00:55:36.375Z,100122.26
2019-05-19T00:59:40.569Z,100122.89
2019-05-19T01:03:44.104Z,100120.89
2019-05-19T01:07:47.499Z,100124.29
2019-05-19T01:11:50.927Z,100116.70
2019-05-19T01:15:54.686Z,100122.78
2019-05-19T01:19:58.267Z,100117.41
2019-05-19T01:24:01.800Z,100112.30
2019-05-19T01:28:05.298Z,100102.84
2019-05-19T01:32:08.915Z,100109.38
2019-05-19T01:36:12.344Z,100108.23
2019-05-19T01:40:16.114Z,100102.28
2019-05-19T01:44:19.620Z,100106.50
2019-05-19T01:48:23.042Z,100094.84
2019-05-19T01:52:26.802Z,100091.94
2019-05-19T01:56:30.187Z,100093.33
2019-05-19T02:00:33.978Z,100084.46
2019-05-19T02:04:37.396Z,100077.41
2019-05-19T02:08:41.211Z,100082.06
2019-05-19T02:12:44.707Z,100083.23
2019-05-19T02:16:48.433Z,100085.67
2019-05-19T02:20:52.147Z,100087.53
2019-05-19T02:24:55.605Z,100095.10
2019-05-19T02:28:59.022Z,100092.07
2019-05-19T02:33:02.447Z,100086.12
2019-05-19T02:37:05.886Z,100087.77
2019-05-19T02:41:12.446Z,100088.78
2019-05-19T02:45:16.041Z,100091.84
2019-05-19T02:49:20.707Z,100096.16
2019-05-19T02:53:25.068Z,100097.68
2019-05-19T02:57:28.912Z,100098.61
2019-05-19T03:01:34.112Z,100096.62
2019-05-19T03:05:38.260Z,100102.57
2019-05-19T03:09:41.958Z,100103.23
2019-05-19T03:13:45.658Z,100100.94
2019-05-19T03:17:49.367Z,100111.66
2019-05-19T03:21:52.809Z,100109.56
2019-05-19T03:25:56.247Z,100101.98
2019-05-19T03:30:01.678Z,100104.39
2019-05-19T03:34:05.466Z,100101.17
2019-05-19T03:38:08.999Z,100108.34
2019-05-19T03:42:12.424Z,100118.00
2019-05-19T03:46:15.880Z,100111.66
2019-05-19T03:50:19.399Z,100112.51
2019-05-19T03:54:22.820Z,100108.69
2019-05-19T03:58:26.323Z,100112.56
2019-05-19T04:02:30.013Z,100107.67
2019-05-19T04:06:33.849Z,100110.19
2019-05-19T04:10:37.617Z,100108.25
2019-05-19T04:14:41.347Z,100103.91
2019-05-19T04:18:44.850Z,100103.73
2019-05-19T04:22:48.295Z,100103.52
2019-05-19T04:26:52.106Z,100109.98
2019-05-19T04:30:55.562Z,100113.24
2019-05-19T04:34:59.080Z,100113.77
2019-05-19T04:39:02.774Z,100119.20
2019-05-19T04:43:06.209Z,100118.49
2019-05-19T04:47:09.928Z,100123.17
2019-05-19T04:51:13.869Z,100123.51
2019-05-19T04:55:17.297Z,100123.08
2019-05-19T04:59:20.728Z,100120.88
2019-05-19T05:03:24.198Z,100116.44
2019-05-19T05:07:27.696Z,100111.58
2019-05-19T05:11:31.556Z,100122.02
2019-05-19T05:15:35.033Z,100122.87
2019-05-19T05:19:38.498Z,100120.91
2019-05-19T05:23:42.381Z,100124.25
2019-05-19T05:27:46.142Z,100119.17
2019-05-19T05:31:49.689Z,100118.45
2019-05-19T05:35:53.149Z,100124.49
2019-05-19T05:39:56.779Z,100124.42
2019-05-19T05:44:00.240Z,100120.06
2019-05-19T05:48:03.675Z,100123.27
2019-05-19T05:52:07.106Z,100125.28
2019-05-19T05:56:10.566Z,100126.83
2019-05-19T06:00:15.972Z,100116.69
2019-05-19T06:04:21.054Z,100116.33
2019-05-19T06:08:28.382Z,100119.95
2019-05-19T06:12:32.116Z,100114.67
2019-05-19T06:16:37.283Z,100125.03
2019-05-19T06:20:42.939Z,100119.25
2019-05-19T06:24:46.487Z,100125.42
2019-05-19T06:28:50.056Z,100125.42
2019-05-19T06:32:55.116Z,100133.42
2019-05-19T06:36:59.638Z,100125.83
2019-05-19T06:41:03.229Z,100125.23
2019-05-19T06:45:08.534Z,100121.95
2019-05-19T06:49:12.284Z,100122.78
2019-05-19T06:53:15.734Z,100130.74
2019-05-19T06:57:19.156Z,100122.09
2019-05-19T07:01:22.622Z,100110.44
2019-05-19T07:05:26.050Z,100120.77
2019-05-19T07:09:29.627Z,100122.80
2019-05-19T07:13:33.045Z,100108.11
2019-05-19T07:17:36.567Z,100110.84
2019-05-19T07:21:39.989Z,100101.42
2019-05-19T07:25:44.079Z,100102.84
2019-05-19T07:29:47.806Z,100103.42
2019-05-19T07:33:51.509Z,100110.77
2019-05-19T07:37:54.955Z,100113.88
2019-05-19T07:41:58.633Z,100115.91
2019-05-19T07:46:02.058Z,100116.30
2019-05-19T07:50:07.202Z,100109.40
2019-05-19T07:54:10.969Z,100109.49
2019-05-19T07:58:14.707Z,100112.25
2019-05-19T08:02:18.419Z,100109.86
2019-05-19T08:06:21.880Z,100100.23
2019-05-19T08:10:25.362Z,100103.83
2019-05-19T08:14:28.741Z,100092.26
2019-05-19T08:18:32.472Z,100081.91
2019-05-19T08:22:36.029Z,100089.77
2019-05-19T08:26:40.758Z,100082.30
2019-05-19T08:30:43.986Z,100087.41
2019-05-19T08:34:47.708Z,100080.52
2019-05-19T08:38:52.226Z,100086.47
2019-05-19T08:42:55.961Z,100074.58
2019-05-19T08:46:59.487Z,100066.39
2019-05-19T08:51:02.921Z,100075.53
2019-05-19T08:55:06.618Z,100071.75
2019-05-19T08:59:10.033Z,100069.42
2019-05-19T09:03:13.477Z,100062.06
2019-05-19T09:07:17.222Z,100062.55
2019-05-19T09:11:21.654Z,100054.80
2019-05-19T09:15:25.091Z,100055.59
2019-05-19T09:19:28.522Z,100047.77
2019-05-19T09:23:32.457Z,100044.28
2019-05-19T09:27:36.681Z,100046.87
2019-05-19T09:31:41.503Z,100044.84
2019-05-19T09:35:45.292Z,100045.13
2019-05-19T09:39:49.258Z,100032.97
2019-05-19T09:43:53.006Z,100030.40
2019-05-19T09:47:56.641Z,100023.09
2019-05-19T09:52:01.625Z,100014.02
2019-05-19T09:56:05.052Z,100011.51
2019-05-19T10:00:09.373Z,100019.64
2019-05-19T10:04:13.036Z,100010.48
2019-05-19T10:08:16.933Z,100008.34
2019-05-19T10:12:20.666Z,100008.28
2019-05-19T10:16:24.166Z,99998.41
2019-05-19T10:20:27.672Z,100003.88
2019-05-19T10:24:31.461Z,100000.93
2019-05-19T10:28:34.897Z,100002.19
2019-05-19T10:32:39.107Z,99990.12
2019-05-19T10:36:42.605Z,99991.55
2019-05-19T10:40:46.695Z,99986.92
2019-05-19T10:44:50.133Z,99978.94
2019-05-19T10:48:53.563Z,99988.19
2019-05-19T10:52:56.982Z,99982.97
2019-05-19T10:57:00.757Z,99971.52
2019-05-19T11:01:04.471Z,99983.54
2019-05-19T11:05:11.191Z,99976.17
2019-05-19T11:09:13.636Z,99976.59
2019-05-19T11:13:17.365Z,99981.27
2019-05-19T11:17:20.796Z,99977.14
2019-05-19T11:21:24.299Z,99977.05
2019-05-19T11:25:33.958Z,99959.59
2019-05-19T11:29:32.927Z,99947.58
2019-05-19T11:33:36.362Z,99955.98
2019-05-19T11:37:39.780Z,99958.83
2019-05-19T11:41:43.221Z,99950.91
2019-05-19T11:45:46.957Z,99946.52
2019-05-19T11:49:50.387Z,99949.52
2019-05-19T11:53:53.798Z,99947.91
2019-05-19T11:57:57.623Z,99932.20
2019-05-19T12:02:01.079Z,99946.47
2019-05-19T12:06:04.824Z,99940.63
2019-05-19T12:10:09.368Z,99931.69
2019-05-19T12:14:13.445Z,99933.38
2019-05-19T12:18:17.178Z,99934.92
2019-05-19T12:22:20.604Z,99929.94
2019-05-19T12:30:27.353Z,99937.54
2019-05-19T12:34:30.949Z,99932.37
2019-05-19T12:38:34.623Z,99931.10
2019-05-19T12:42:38.043Z,99928.20
2019-05-19T12:46:41.799Z,99929.30
2019-05-19T12:50:45.413Z,99918.23
2019-05-19T12:54:49.184Z,99927.08
2019-05-19T12:58:52.695Z,99916.00
2019-05-19T13:02:56.121Z,99909.30
2019-05-19T13:06:59.536Z,99901.41
2019-05-19T13:11:02.981Z,99900.66
2019-05-19T13:15:08.519Z,99894.25
2019-05-19T13:19:12.117Z,99900.23
2019-05-19T13:23:17.749Z,99883.66
2019-05-19T13:27:23.586Z,99883.27
2019-05-19T13:31:27.944Z,99890.62
2019-05-19T13:35:33.229Z,99880.63
2019-05-19T13:39:38.374Z,99887.63
2019-05-19T13:43:41.943Z,99878.74
2019-05-19T13:47:45.437Z,99881.73
2019-05-19T13:51:50.486Z,99885.66
2019-05-19T13:55:54.601Z,99887.48
2019-05-19T13:59:59.397Z,99887.34
2019-05-19T14:04:04.911Z,99882.38
2019-05-19T14:08:08.640Z,99870.84
2019-05-19T14:12:13.040Z,99867.27
2019-05-19T14:16:17.846Z,99873.84
2019-05-19T14:20:22.830Z,99869.73
2019-05-19T14:24:26.278Z,99870.38
2019-05-19T14:28:30.775Z,99866.97
2019-05-19T14:32:34.361Z,99866.10
2019-05-19T14:36:38.415Z,99853.33
2019-05-19T14:40:47.027Z,99848.20
2019-05-19T14:44:52.067Z,99853.81
2019-05-19T14:48:56.923Z,99839.88
2019-05-19T14:53:00.516Z,99846.20
2019-05-19T14:57:05.181Z,99845.27
2019-05-19T15:01:10.992Z,99838.47
2019-05-19T15:05:17.699Z,99855.81
2019-05-19T15:09:22.944Z,99852.87
2019-05-19T15:13:31.059Z,99851.42
2019-05-19T15:17:34.504Z,99854.01
2019-05-19T15:21:42.125Z,99855.59
2019-05-19T15:25:50.160Z,99838.38
2019-05-19T15:30:11.884Z,99842.48
2019-05-19T15:34:05.171Z,99847.58
2019-05-19T15:38:10.077Z,99849.24
2019-05-19T15:42:15.733Z,99848.70
2019-05-19T15:46:21.767Z,99857.63
2019-05-19T15:50:26.702Z,99858.61
2019-05-19T15:54:31.042Z,99852.16
2019-05-19T15:58:36.684Z,99845.34
2019-05-19T16:02:40.326Z,99848.87
2019-05-19T16:06:44.327Z,99832.20
2019-05-19T16:10:47.858Z,99825.37
2019-05-19T16:14:51.273Z,99832.87
2019-05-19T16:18:54.716Z,99822.45
2019-05-19T16:22:58.346Z,99817.84
2019-05-19T16:27:02.297Z,99815.17
2019-05-19T16:31:05.757Z,99812.55
2019-05-19T16:35:09.507Z,99816.27
2019-05-19T16:39:12.939Z,99812.12
2019-05-19T16:43:17.049Z,99811.90
2019-05-19T16:47:20.484Z,99815.03
2019-05-19T16:51:24.095Z,99812.85
2019-05-19T16:55:30.127Z,99818.75
2019-05-19T16:59:33.672Z,99802.34
2019-05-19T17:03:37.189Z,99810.34
2019-05-19T17:07:40.835Z,99819.02
2019-05-19T17:11:44.385Z,99815.37
2019-05-19T17:15:48.230Z,99814.09
2019-05-19T17:19:52.258Z,99811.05
2019-05-19T17:23:56.842Z,99815.00
2019-05-19T17:28:00.356Z,99820.14
2019-05-19T17:32:05.975Z,99797.64
2019-05-19T17:36:09.247Z,99797.64
2019-05-19T17:40:13.920Z,99807.56
2019-05-19T17:44:18.602Z,99808.27
2019-05-19T17:48:26.474Z,99809.95
2019-05-19T17:52:29.155Z,99809.95
2019-05-19T17:56:33.532Z,99808.91
2019-05-19T18:00:43.127Z,99802.97
2019-05-19T18:04:47.337Z,99807.95
2019-05-19T18:08:51.093Z,99805.54
2019-05-19T18:12:54.884Z,99806.86
2019-05-19T18:16:58.851Z,99818.53
2019-05-19T18:21:02.950Z,99826.28
2019-05-19T18:25:07.077Z,99835.23
2019-05-19T18:29:10.503Z,99820.73
2019-05-19T18:33:13.938Z,99815.48
2019-05-19T18:37:17.909Z,99828.89
2019-05-19T18:41:21.656Z,99830.02
2019-05-19T18:45:25.224Z,99838.37
2019-05-19T18:49:29.021Z,99850.08
2019-05-19T18:53:32.566Z,99861.81
2019-05-19T18:57:37.231Z,99862.89
2019-05-19T19:01:40.851Z,99873.50
2019-05-19T19:05:45.146Z,99879.20
2019-05-19T19:09:48.645Z,99878.06
2019-05-19T19:13:52.091Z,99877.86
2019-05-19T19:17:55.527Z,99883.27
2019-05-19T19:21:59.184Z,99880.92
2019-05-19T19:26:02.586Z,99885.95
2019-05-19T19:30:09.759Z,99882.56
2019-05-19T19:34:13.536Z,99890.03
2019-05-19T19:38:17.012Z,99901.05
2019-05-19T19:42:20.660Z,99895.97
2019-05-19T19:46:24.133Z,99894.92
2019-05-19T19:50:28.440Z,99903.42
2019-05-19T20:04:38.890Z,99929.06
2019-05-19T20:08:42.338Z,99931.70
2019-05-19T20:12:45.902Z,99932.16
2019-05-19T20:16:49.402Z,99939.51
2019-05-19T20:20:52.846Z,99941.73
2019-05-19T20:24:56.270Z,99944.42
2019-05-19T20:28:59.712Z,99947.47
2019-05-19T20:33:03.484Z,99944.27
2019-05-19T20:37:06.964Z,99951.80
2019-05-19T20:41:11.037Z,99956.28
2019-05-19T20:45:14.824Z,99956.74
2019-05-19T20:49:19.223Z,99962.43
2019-05-19T20:53:22.682Z,99960.05
2019-05-19T20:57:26.193Z,99953.75
2019-05-19T21:01:29.943Z,99958.44
2019-05-19T21:05:33.373Z,99961.69
2019-05-19T21:09:36.823Z,99957.14
2019-05-19T21:13:40.266Z,99958.92
2019-05-19T21:17:43.906Z,99961.69
2019-05-19T21:21:47.449Z,99968.31
2019-05-19T21:25:51.591Z,99964.28
2019-05-19T21:29:55.191Z,99970.13
2019-05-19T21:33:58.858Z,99966.88
2019-05-19T21:38:02.265Z,99972.68
2019-05-19T21:42:06.240Z,99973.47
2019-05-19T21:46:09.969Z,99983.17
2019-05-19T21:50:13.823Z,99980.78
2019-05-19T21:54:17.326Z,99975.59
2019-05-19T21:58:21.546Z,99981.41
2019-05-19T22:02:25.319Z,99976.84
2019-05-19T22:06:30.692Z,99976.77
2019-05-19T22:10:34.217Z,99969.00
2019-05-19T22:14:37.665Z,99984.74
2019-05-19T22:18:41.557Z,99979.52
2019-05-19T22:22:45.560Z,99977.48
2019-05-19T22:26:50.000Z,99979.73
2019-05-19T22:30:54.136Z,99974.86
2019-05-19T22:34:57.661Z,99973.56
2019-05-19T22:39:01.565Z,99968.20
2019-05-19T22:43:05.342Z,99965.95
2019-05-19T22:47:08.812Z,99957.91
2019-05-19T22:51:12.388Z,99955.48
2019-05-19T22:55:16.696Z,99954.66
2019-05-19T22:59:20.516Z,99959.23
2019-05-19T23:03:23.994Z,99961.73
2019-05-19T23:07:27.411Z,99948.29
2019-05-19T23:11:30.872Z,99953.66
2019-05-19T23:15:34.637Z,99948.59
2019-05-19T23:19:38.173Z,99943.33
2019-05-19T23:23:41.974Z,99945.91
2019-05-19T23:27:45.418Z,99946.67
2019-05-19T23:31:49.181Z,99947.55
2019-05-19T23:35:52.898Z,99941.93
2019-05-19T23:39:56.845Z,99940.66
2019-05-19T23:44:00.295Z,99940.67
2019-05-19T23:48:04.261Z,99937.70
2019-05-19T23:52:07.764Z,99930.09
2019-05-19T23:56:11.143Z,99923.96
